»·PEaware :: BOXER72 KSMF-KLSV

BOXER72 :: KSMF-KLSV

FLIGHT INFORMATION

Flight Status: Arrived
Operator: Unknown
More flights by this operator :: More flights under this callsign
Pilot: Anonymous 8799 (8799)
Aircraft: BOEING 737-800
(B738)
More flights by this aircraft type
Origin: KSMF Sacramento Intl
United States
Destination: KLSV Nellis AFB
United States
More flights between these airports :: More routes between these airports
Route: +SCTWN2 RALEY TUMBE FANLO HASIL
File this flight plan on PilotEdge
Remarks:
Altitude:
(Current/Filed)
27,000ft
Speed:
(Current/Filed)
450kts
Departed: 10-May-17 06:08 PM
Arrived: 10-May-17 07:08 PM
Distance/Time
Traveled:
345nm/1:00
Distance/Time
To Go:
Arrived

Flight Plot

Page will automatically refresh every two minutes.

Flight plan parsing failed; only flown route is shown


Map Options




Map Legend


Flown Route
Filed Route
Departure Airport
Arrival Airport
Navaid (VOR, NDB)
Fix

Horizontal Profiles

Position Reports

Time Latitude Longitude Heading Altitude Ground
Speed
10-May-17 17:46 38.690176 -121.596590 226 33ft 0kts
10-May-17 17:47 38.690176 -121.596590 226 33ft 0kts
10-May-17 17:48 38.690176 -121.596590 226 33ft 0kts
10-May-17 17:49 38.690176 -121.596590 226 33ft 0kts
10-May-17 17:50 38.690176 -121.596590 226 33ft 0kts
10-May-17 17:51 38.690176 -121.596590 226 33ft 0kts
10-May-17 17:52 38.690176 -121.596590 226 33ft 0kts
10-May-17 17:53 38.690176 -121.596590 226 33ft 0kts
10-May-17 17:54 38.690176 -121.596590 226 33ft 0kts
10-May-17 17:55 38.690176 -121.596590 226 33ft 0kts
10-May-17 17:56 38.690176 -121.596590 226 33ft 0kts
10-May-17 17:57 38.690176 -121.596590 226 33ft 0kts
10-May-17 17:58 38.690176 -121.596590 226 33ft 0kts
10-May-17 17:59 38.690176 -121.596590 226 33ft 0kts
10-May-17 18:00 38.690176 -121.596590 226 33ft 0kts
10-May-17 18:01 38.690161 -121.596615 234 33ft 1kts
10-May-17 18:02 38.690774 -121.598792 350 33ft 5kts
10-May-17 18:03 38.693250 -121.598694 359 32ft 17kts
10-May-17 18:04 38.697759 -121.598617 0 32ft 10kts
10-May-17 18:05 38.703443 -121.598519 0 33ft 20kts
10-May-17 18:06 38.706708 -121.598521 347 33ft 12kts
10-May-17 18:07 38.707215 -121.599697 268 33ft 0kts
10-May-17 18:08 38.707215 -121.599697 268 33ft 0kts
10-May-17 18:09 38.707210 -121.599912 267 33ft 6kts
10-May-17 18:10 38.690241 -121.601309 179 75ft 166kts
10-May-17 18:11 38.643692 -121.572784 112 3136ft 238kts
10-May-17 18:12 38.633463 -121.482380 102 6482ft 281kts
10-May-17 18:13 38.632009 -121.381033 86 10378ft 302kts
10-May-17 18:14 38.635062 -121.281571 87 13128ft 340kts
10-May-17 18:15 38.638298 -121.157693 88 16622ft 362kts
10-May-17 18:16 38.641428 -121.027357 89 19828ft 371kts
10-May-17 18:17 38.644496 -120.892540 90 22915ft 391kts
10-May-17 18:18 38.647519 -120.752649 90 26004ft 396kts
10-May-17 18:19 38.646441 -120.607379 93 27124ft 441kts
10-May-17 18:20 38.643028 -120.452289 93 27107ft 438kts
10-May-17 18:21 38.639857 -120.314496 94 27170ft 440kts
10-May-17 18:22 38.636119 -120.160947 94 27182ft 440kts
10-May-17 18:23 38.632126 -120.005305 94 27183ft 440kts
10-May-17 18:24 38.627914 -119.849153 94 27185ft 440kts
10-May-17 18:25 38.623510 -119.693599 94 27109ft 439kts
10-May-17 18:26 38.618899 -119.538013 94 27106ft 440kts
10-May-17 18:27 38.614074 -119.382183 94 27107ft 440kts
10-May-17 18:28 38.609125 -119.228932 95 27101ft 440kts
10-May-17 18:29 38.603900 -119.073377 95 27181ft 440kts
10-May-17 18:30 38.598502 -118.918946 95 27166ft 439kts
10-May-17 18:31 38.592849 -118.762927 95 27185ft 440kts
10-May-17 18:32 38.587001 -118.607343 95 27186ft 440kts
10-May-17 18:33 38.580947 -118.451817 94 27008ft 441kts
10-May-17 18:34 38.574596 -118.300762 99 26979ft 439kts
10-May-17 18:35 38.508125 -118.181471 145 27013ft 417kts
10-May-17 18:36 38.416309 -118.092790 149 27047ft 414kts
10-May-17 18:37 38.323093 -118.007763 149 27047ft 414kts
10-May-17 18:38 38.229503 -117.923073 149 27047ft 414kts
10-May-17 18:39 38.133872 -117.836911 149 27056ft 438kts
10-May-17 18:40 38.031708 -117.745103 149 27053ft 463kts
10-May-17 18:41 37.927643 -117.651868 149 27048ft 460kts
10-May-17 18:42 37.835651 -117.569775 149 27052ft 460kts
10-May-17 18:43 37.731881 -117.477476 149 27053ft 460kts
10-May-17 18:44 37.627609 -117.385053 149 27053ft 460kts
10-May-17 18:45 37.527007 -117.296186 149 27046ft 460kts
10-May-17 18:46 37.422589 -117.204267 149 27046ft 460kts
10-May-17 18:47 37.318201 -117.112692 149 27046ft 460kts
10-May-17 18:48 37.213750 -117.021376 149 27047ft 460kts
10-May-17 18:49 37.109346 -116.930410 149 26141ft 454kts
10-May-17 18:50 37.007390 -116.841911 149 24919ft 451kts
10-May-17 18:51 36.905912 -116.754064 149 24407ft 444kts
10-May-17 18:52 36.816344 -116.673169 136 23967ft 448kts
10-May-17 18:53 36.752769 -116.537327 120 23998ft 457kts
10-May-17 18:54 36.694788 -116.397134 120 23998ft 458kts
10-May-17 18:55 36.638412 -116.260448 120 23993ft 457kts
10-May-17 18:56 36.580523 -116.120667 120 23993ft 457kts
10-May-17 18:57 36.522434 -115.980999 120 23995ft 457kts
10-May-17 18:58 36.463977 -115.841098 120 22689ft 452kts
10-May-17 18:59 36.408397 -115.708618 119 19683ft 426kts
10-May-17 19:00 36.355423 -115.582823 119 16705ft 405kts
10-May-17 19:01 36.309151 -115.460070 103 13712ft 389kts
10-May-17 19:02 36.307547 -115.338867 86 12964ft 385kts
10-May-17 19:03 36.303561 -115.208529 111 12456ft 386kts
10-May-17 19:04 36.270076 -115.096521 111 10360ft 314kts
10-May-17 19:05 36.241454 -115.000812 111 8334ft 292kts
10-May-17 19:06 36.195381 -114.930933 178 6350ft 271kts
10-May-17 19:07 36.156377 -114.992089 281 4521ft 262kts
10-May-17 19:08 36.181706 -115.063929 304 3016ft 188kts
10-May-17 19:09 36.215404 -115.062314 62 2464ft 171kts
10-May-17 19:10 36.239089 -115.033394 39 1879ft 40kts
10-May-17 19:11 36.244815 -115.027260 20 1879ft 18kts
10-May-17 19:12 36.245424 -115.027904 282 1879ft 0kts
10-May-17 19:13 36.245462 -115.028103 283 1879ft 3kts
10-May-17 19:14 36.244772 -115.032403 188 1879ft 0kts
10-May-17 19:15 36.244717 -115.032413 188 1879ft 0kts

Navigation Log

Ident Type
Flight plan parsing failed, navigation log unavailable